createdAt,value
2023-04-15T00:00:59.956Z,13.96
2023-04-15T00:03:27.540Z,14.12
2023-04-15T00:05:54.504Z,14.17
2023-04-15T00:08:21.288Z,14.16
2023-04-15T00:10:48.147Z,14.23
2023-04-15T00:13:15.575Z,14.14
2023-04-15T00:15:43.390Z,14.17
2023-04-15T00:18:10.604Z,14.21
2023-04-15T00:20:37.795Z,14.24
2023-04-15T00:23:05.682Z,14.33
2023-04-15T00:25:33.177Z,14.35
2023-04-15T00:28:00.214Z,14.29
2023-04-15T00:30:27.098Z,14.24
2023-04-15T00:32:54.014Z,14.16
2023-04-15T00:35:24.059Z,14.11
2023-04-15T00:37:51.579Z,14.02
2023-04-15T00:40:21.112Z,14.06
2023-04-15T00:42:48.134Z,13.90
2023-04-15T00:45:15.747Z,13.85
2023-04-15T00:47:44.483Z,13.75
2023-04-15T00:50:12.770Z,13.53
2023-04-15T00:52:40.920Z,13.67
2023-04-15T00:55:08.825Z,13.63
2023-04-15T00:57:36.568Z,13.54
2023-04-15T01:00:05.783Z,13.51
2023-04-15T01:02:33.646Z,13.27
2023-04-15T01:05:04.103Z,13.26
2023-04-15T01:07:32.064Z,13.31
2023-04-15T01:09:59.134Z,13.11
2023-04-15T01:12:27.508Z,12.97
2023-04-15T01:14:56.300Z,13.06
2023-04-15T01:17:24.874Z,12.87
2023-04-15T01:19:52.859Z,13.01
2023-04-15T01:22:19.819Z,13.05
2023-04-15T01:24:57.518Z,13.30
2023-04-15T01:27:24.973Z,13.32
2023-04-15T01:29:52.020Z,13.36
2023-04-15T01:32:19.444Z,13.35
2023-04-15T01:34:46.278Z,13.15
2023-04-15T01:37:13.128Z,13.29
2023-04-15T01:39:40.530Z,13.39
2023-04-15T01:42:07.726Z,13.35
2023-04-15T01:44:34.582Z,13.43
2023-04-15T01:47:01.465Z,13.57
2023-04-15T01:49:28.529Z,13.50
2023-04-15T01:51:55.348Z,13.50
2023-04-15T01:54:22.658Z,13.48
2023-04-15T01:56:51.329Z,13.19
2023-04-15T01:59:18.819Z,13.05
2023-04-15T02:01:46.679Z,12.99
2023-04-15T02:04:19.394Z,12.99
2023-04-15T02:06:46.451Z,12.88
2023-04-15T02:09:14.272Z,12.99
2023-04-15T02:11:41.163Z,12.96
2023-04-15T02:14:07.970Z,12.80
2023-04-15T02:16:34.821Z,12.87
2023-04-15T02:19:02.273Z,12.80
2023-04-15T02:21:30.810Z,12.98
2023-04-15T02:23:57.745Z,13.08
2023-04-15T02:26:25.721Z,13.21
2023-04-15T02:28:55.006Z,13.18
2023-04-15T02:31:21.987Z,13.21
2023-04-15T02:33:48.888Z,13.18
2023-04-15T02:36:15.777Z,13.16
2023-04-15T02:38:43.945Z,13.11
2023-04-15T02:41:12.653Z,13.04
2023-04-15T02:43:40.101Z,12.87
2023-04-15T02:46:08.607Z,12.90
2023-04-15T02:48:36.142Z,12.80
2023-04-15T02:51:20.060Z,12.83
2023-04-15T02:53:48.673Z,13.03
2023-04-15T02:56:17.317Z,13.02
2023-04-15T02:58:45.787Z,13.00
2023-04-15T03:01:12.950Z,12.93
2023-04-15T03:03:41.072Z,13.07
2023-04-15T03:06:09.159Z,13.03
2023-04-15T03:08:37.076Z,13.03
2023-04-15T03:11:04.759Z,12.94
2023-04-15T03:13:32.946Z,12.83
2023-04-15T03:16:05.839Z,12.77
2023-04-15T03:18:33.165Z,12.74
2023-04-15T03:21:03.016Z,12.75
2023-04-15T03:23:33.124Z,12.69
2023-04-15T03:26:04.321Z,12.78
2023-04-15T03:28:32.954Z,12.95
2023-04-15T03:31:00.748Z,12.73
2023-04-15T03:33:27.771Z,12.63
2023-04-15T03:35:54.736Z,12.81
2023-04-15T03:38:21.773Z,12.79
2023-04-15T03:40:48.714Z,12.87
2023-04-15T03:43:15.762Z,12.90
2023-04-15T03:45:42.672Z,12.90
2023-04-15T03:48:17.158Z,12.85
2023-04-15T03:50:45.307Z,12.86
2023-04-15T03:53:12.194Z,12.79
2023-04-15T03:55:39.014Z,12.74
2023-04-15T03:58:05.837Z,12.88
2023-04-15T04:00:32.647Z,12.85
2023-04-15T04:02:59.704Z,12.77
2023-04-15T04:05:26.749Z,12.76
2023-04-15T04:07:53.684Z,12.72
2023-04-15T04:10:20.457Z,12.75
2023-04-15T04:12:47.303Z,12.73
2023-04-15T04:15:14.204Z,12.74
2023-04-15T04:17:41.080Z,12.76
2023-04-15T04:20:08.992Z,12.79
2023-04-15T04:22:40.213Z,12.84
2023-04-15T04:25:08.777Z,12.77
2023-04-15T04:27:36.012Z,12.77
2023-04-15T04:30:02.986Z,12.67
2023-04-15T04:32:29.929Z,12.67
2023-04-15T04:34:56.815Z,12.75
2023-04-15T04:37:24.722Z,12.76
2023-04-15T04:39:51.703Z,12.82
2023-04-15T04:42:18.562Z,12.79
2023-04-15T04:44:45.434Z,12.89
2023-04-15T04:47:12.363Z,12.82
2023-04-15T04:49:45.058Z,12.88
2023-04-15T04:52:12.380Z,12.92
2023-04-15T04:54:39.234Z,12.99
2023-04-15T04:57:21.672Z,12.95
2023-04-15T04:59:51.334Z,12.96
2023-04-15T05:02:24.176Z,12.83
2023-04-15T05:05:04.458Z,12.75
2023-04-15T05:07:33.694Z,12.80
2023-04-15T05:10:00.534Z,12.80
2023-04-15T05:12:27.405Z,12.79
2023-04-15T05:14:54.300Z,12.87
2023-04-15T05:17:21.163Z,12.88
2023-04-15T05:19:48.274Z,12.90
2023-04-15T05:22:15.083Z,12.85
2023-04-15T05:24:41.905Z,12.74
2023-04-15T05:27:10.681Z,12.69
2023-04-15T05:29:37.554Z,12.82
2023-04-15T05:32:04.601Z,12.72
2023-04-15T05:34:31.698Z,12.82
2023-04-15T05:36:58.699Z,12.94
2023-04-15T05:39:25.708Z,13.12
2023-04-15T05:41:52.590Z,13.18
2023-04-15T05:44:19.493Z,13.21
2023-04-15T05:46:46.607Z,13.45
2023-04-15T05:49:13.521Z,13.48
2023-04-15T05:51:40.626Z,13.48
2023-04-15T05:54:07.471Z,13.53
2023-04-15T05:56:34.350Z,13.53
2023-04-15T05:59:01.885Z,13.37
2023-04-15T06:01:28.936Z,13.42
2023-04-15T06:03:56.184Z,13.49
2023-04-15T06:06:23.608Z,13.51
2023-04-15T06:08:50.453Z,13.44
2023-04-15T06:11:17.385Z,13.48
2023-04-15T06:13:44.247Z,13.46
2023-04-15T06:16:11.977Z,13.50
2023-04-15T06:18:38.934Z,13.78
2023-04-15T06:21:09.334Z,14.00
2023-04-15T06:23:37.237Z,14.13
2023-04-15T06:26:04.136Z,14.06
2023-04-15T06:28:31.004Z,14.23
2023-04-15T06:30:58.051Z,14.15
2023-04-15T06:33:25.055Z,14.36
2023-04-15T06:35:51.859Z,14.34
2023-04-15T06:38:18.722Z,14.26
2023-04-15T06:40:46.472Z,14.12
2023-04-15T06:43:13.333Z,14.02
2023-04-15T06:45:40.428Z,14.17
2023-04-15T06:48:07.355Z,14.15
2023-04-15T06:50:35.748Z,13.96
2023-04-15T06:53:03.235Z,13.97
2023-04-15T06:55:31.685Z,13.99
2023-04-15T06:57:58.564Z,13.89
2023-04-15T07:00:25.675Z,13.86
2023-04-15T07:02:52.938Z,13.93
2023-04-15T07:05:20.296Z,13.92
2023-04-15T07:07:47.312Z,13.86
2023-04-15T07:10:15.997Z,13.60
2023-04-15T07:12:42.929Z,13.71
2023-04-15T07:15:10.328Z,13.78
2023-04-15T07:17:37.380Z,13.65
2023-04-15T07:20:05.082Z,13.60
2023-04-15T07:22:31.996Z,13.72
2023-04-15T07:24:58.799Z,13.86
2023-04-15T07:27:26.101Z,13.92
2023-04-15T07:29:53.279Z,14.06
2023-04-15T07:32:20.296Z,13.97
2023-04-15T07:34:47.343Z,13.94
2023-04-15T07:37:15.012Z,13.85
2023-04-15T07:39:41.950Z,13.79
2023-04-15T07:42:08.857Z,13.88
2023-04-15T07:44:35.795Z,13.99
2023-04-15T07:47:03.340Z,14.13
2023-04-15T07:49:30.706Z,14.21
2023-04-15T07:51:57.915Z,14.40
2023-04-15T07:54:25.000Z,14.45
2023-04-15T07:56:51.809Z,14.39
2023-04-15T07:59:18.808Z,14.48
2023-04-15T08:01:45.939Z,14.59
2023-04-15T08:04:12.854Z,14.34
2023-04-15T08:06:40.165Z,14.45
2023-04-15T08:09:07.268Z,14.22
2023-04-15T08:11:34.214Z,14.35
2023-04-15T08:14:01.299Z,14.64
2023-04-15T08:16:28.730Z,14.86
2023-04-15T08:18:57.046Z,15.42
2023-04-15T08:21:24.642Z,15.66
2023-04-15T08:23:52.813Z,15.80
2023-04-15T08:26:21.182Z,15.72
2023-04-15T08:28:48.789Z,15.53
2023-04-15T08:31:17.063Z,15.67
2023-04-15T08:33:44.015Z,16.23
2023-04-15T08:36:11.097Z,16.76
2023-04-15T08:38:38.219Z,16.95
2023-04-15T08:41:11.918Z,17.02
2023-04-15T08:43:49.481Z,17.48
2023-04-15T08:46:16.991Z,17.35
2023-04-15T08:48:48.159Z,17.34
2023-04-15T08:51:16.458Z,17.69
2023-04-15T08:53:47.562Z,17.78
2023-04-15T08:56:16.964Z,18.21
2023-04-15T08:58:45.130Z,18.60
2023-04-15T09:01:15.260Z,18.26
2023-04-15T09:03:43.407Z,17.51
2023-04-15T09:06:12.974Z,17.95
2023-04-15T09:08:39.822Z,17.15
2023-04-15T09:11:06.584Z,17.16
2023-04-15T09:13:33.423Z,17.76
2023-04-15T09:16:03.709Z,18.23
2023-04-15T09:18:32.437Z,19.02
2023-04-15T09:21:11.525Z,19.03
2023-04-15T09:23:42.028Z,18.94
2023-04-15T09:26:08.962Z,18.80
2023-04-15T09:28:43.028Z,18.69
2023-04-15T09:31:10.906Z,18.87
2023-04-15T09:33:56.963Z,18.73
2023-04-15T09:36:25.257Z,18.88
2023-04-15T09:38:57.343Z,18.60
2023-04-15T09:41:25.179Z,18.25
2023-04-15T09:43:52.492Z,18.35
2023-04-15T09:46:19.675Z,18.56
2023-04-15T09:48:46.738Z,19.23
2023-04-15T09:51:13.559Z,18.82
2023-04-15T09:53:40.424Z,19.23
2023-04-15T09:56:09.089Z,19.44
2023-04-15T09:58:37.460Z,19.10
2023-04-15T10:01:06.331Z,19.19
2023-04-15T10:03:36.969Z,18.81
2023-04-15T10:06:05.806Z,19.05
2023-04-15T10:08:35.077Z,19.47
2023-04-15T10:11:03.183Z,19.15
2023-04-15T10:13:36.586Z,19.49
2023-04-15T10:16:14.600Z,19.76
2023-04-15T10:18:45.507Z,19.83
2023-04-15T10:21:14.176Z,19.37
2023-04-15T10:23:41.374Z,19.76
2023-04-15T10:26:09.570Z,19.70
2023-04-15T10:28:36.416Z,20.10
2023-04-15T10:31:06.206Z,20.47
2023-04-15T10:33:34.111Z,20.39
2023-04-15T10:36:01.618Z,19.76
2023-04-15T10:38:45.902Z,20.18
2023-04-15T10:41:21.631Z,20.64
2023-04-15T10:43:56.399Z,20.52
2023-04-15T10:46:40.910Z,20.34
2023-04-15T10:49:11.165Z,20.37
2023-04-15T10:51:42.830Z,20.61
2023-04-15T10:54:29.833Z,20.44
2023-04-15T10:57:02.971Z,20.46
2023-04-15T10:59:32.668Z,20.66
2023-04-15T11:02:05.411Z,20.79
2023-04-15T11:04:58.417Z,21.03
2023-04-15T11:07:58.627Z,21.00
2023-04-15T11:10:25.808Z,21.25
2023-04-15T11:13:16.813Z,20.87
2023-04-15T11:15:47.437Z,20.55
2023-04-15T11:18:23.445Z,20.64
2023-04-15T11:20:54.777Z,20.74
2023-04-15T11:23:28.831Z,21.13
2023-04-15T11:26:00.011Z,21.19
2023-04-15T11:28:28.292Z,21.20
2023-04-15T11:30:55.893Z,21.60
2023-04-15T11:33:24.102Z,21.40
2023-04-15T11:35:55.313Z,21.36
2023-04-15T11:38:22.873Z,21.52
2023-04-15T11:40:51.443Z,21.52
2023-04-15T11:43:22.967Z,21.59
2023-04-15T11:45:54.707Z,21.69
2023-04-15T11:48:42.562Z,21.84
2023-04-15T11:51:09.526Z,21.72
2023-04-15T11:53:37.479Z,21.86
2023-04-15T11:56:04.729Z,21.92
2023-04-15T11:58:31.826Z,22.08
2023-04-15T12:01:00.349Z,21.53
2023-04-15T12:03:45.353Z,21.75
2023-04-15T12:06:19.721Z,21.95
2023-04-15T12:08:55.761Z,22.13
2023-04-15T12:11:38.028Z,22.27
2023-04-15T12:14:16.951Z,21.61
2023-04-15T12:16:52.667Z,21.94
2023-04-15T12:19:25.434Z,21.69
2023-04-15T12:21:58.262Z,21.87
2023-04-15T12:24:27.154Z,22.10
2023-04-15T12:26:57.322Z,21.88
2023-04-15T12:29:28.660Z,21.74
2023-04-15T12:31:58.002Z,22.00
2023-04-15T12:34:45.731Z,22.06
2023-04-15T12:37:16.139Z,21.90
2023-04-15T12:39:44.685Z,22.51
2023-04-15T12:42:12.474Z,22.64
2023-04-15T12:44:39.885Z,22.05
2023-04-15T12:47:08.077Z,22.03
2023-04-15T12:49:35.327Z,22.44
2023-04-15T12:52:03.448Z,23.01
2023-04-15T12:54:31.946Z,22.46
2023-04-15T12:56:59.567Z,22.94
2023-04-15T12:59:27.010Z,22.52
2023-04-15T13:01:54.926Z,22.42
2023-04-15T13:04:22.402Z,22.37
2023-04-15T13:06:49.829Z,22.20
2023-04-15T13:09:16.770Z,21.98
2023-04-15T13:11:43.895Z,22.15
2023-04-15T13:14:13.697Z,22.27
2023-04-15T13:16:40.883Z,22.86
2023-04-15T13:19:08.050Z,23.28
2023-04-15T13:21:36.121Z,23.27
2023-04-15T13:24:05.195Z,23.15
2023-04-15T13:26:32.336Z,22.93
2023-04-15T13:28:59.859Z,23.06
2023-04-15T13:31:27.291Z,23.01
2023-04-15T13:33:54.286Z,23.34
2023-04-15T13:36:21.342Z,23.38
2023-04-15T13:38:51.000Z,23.19
2023-04-15T13:41:18.528Z,23.16
2023-04-15T13:43:45.692Z,23.14
2023-04-15T13:46:12.959Z,23.10
2023-04-15T13:48:40.268Z,22.39
2023-04-15T13:51:07.114Z,23.05
2023-04-15T13:53:38.785Z,23.12
2023-04-15T13:56:10.098Z,23.13
2023-04-15T13:58:38.219Z,22.84
2023-04-15T14:01:06.780Z,21.96
2023-04-15T14:03:36.538Z,21.78
2023-04-15T14:06:04.727Z,21.99
2023-04-15T14:08:31.864Z,22.07
2023-04-15T14:10:58.869Z,22.51
2023-04-15T14:13:25.988Z,22.43
2023-04-15T14:15:53.105Z,22.09
2023-04-15T14:18:20.331Z,22.09
2023-04-15T14:20:47.206Z,22.00
2023-04-15T14:23:14.160Z,21.80
2023-04-15T14:25:41.093Z,21.64
2023-04-15T14:28:07.967Z,21.58
2023-04-15T14:30:34.860Z,21.85
2023-04-15T14:33:01.968Z,21.67
2023-04-15T14:35:29.024Z,21.11
2023-04-15T14:37:56.202Z,20.82
2023-04-15T14:40:23.154Z,20.61
2023-04-15T14:42:50.018Z,21.01
2023-04-15T14:45:17.729Z,21.43
2023-04-15T14:47:44.845Z,21.50
2023-04-15T14:50:12.059Z,21.62
2023-04-15T14:52:39.072Z,21.67
2023-04-15T14:55:11.641Z,21.57
2023-04-15T14:57:39.880Z,21.96
2023-04-15T15:00:08.312Z,22.06
2023-04-15T15:02:39.649Z,21.77
2023-04-15T15:05:08.250Z,21.90
2023-04-15T15:07:37.176Z,22.16
2023-04-15T15:10:05.158Z,22.25
2023-04-15T15:12:33.149Z,22.08
2023-04-15T15:15:01.635Z,22.14
2023-04-15T15:17:30.091Z,21.27
2023-04-15T15:19:57.503Z,21.03
2023-04-15T15:22:26.257Z,20.74
2023-04-15T15:24:53.678Z,20.72
2023-04-15T15:27:20.826Z,20.48
2023-04-15T15:29:47.749Z,20.32
2023-04-15T15:32:14.634Z,20.16
2023-04-15T15:34:41.491Z,20.18
2023-04-15T15:37:08.318Z,20.32
2023-04-15T15:39:36.108Z,20.39
2023-04-15T15:42:03.032Z,20.23
2023-04-15T15:44:29.932Z,20.03
2023-04-15T15:46:56.886Z,20.18
2023-04-15T15:49:25.528Z,20.11
2023-04-15T15:51:52.526Z,19.77
2023-04-15T15:54:19.339Z,19.68
2023-04-15T15:56:46.180Z,19.66
2023-04-15T15:59:15.735Z,19.44
2023-04-15T16:01:43.329Z,19.36
2023-04-15T16:04:10.629Z,19.25
2023-04-15T16:06:38.352Z,19.19
2023-04-15T16:09:05.552Z,18.83
2023-04-15T16:11:32.597Z,18.90
2023-04-15T16:13:59.624Z,18.78
2023-04-15T16:16:26.575Z,18.65
2023-04-15T16:18:53.510Z,18.50
2023-04-15T16:21:20.800Z,18.42
2023-04-15T16:23:47.675Z,18.34
2023-04-15T16:26:14.872Z,18.39
2023-04-15T16:28:41.782Z,18.45
2023-04-15T16:31:10.948Z,18.43
2023-04-15T16:33:38.960Z,18.35
2023-04-15T16:36:06.322Z,18.51
2023-04-15T16:38:33.161Z,18.42
2023-04-15T16:41:01.309Z,18.41
2023-04-15T16:43:29.150Z,18.43
2023-04-15T16:45:56.122Z,18.19
2023-04-15T16:48:23.011Z,18.25
2023-04-15T16:50:50.045Z,18.19
2023-04-15T16:53:16.911Z,18.22
2023-04-15T16:55:43.787Z,18.12
2023-04-15T16:58:10.636Z,17.88
2023-04-15T17:00:37.650Z,17.76
2023-04-15T17:03:06.152Z,17.73
2023-04-15T17:05:33.702Z,17.73
2023-04-15T17:08:00.728Z,17.73
2023-04-15T17:10:27.915Z,17.43
2023-04-15T17:12:58.214Z,17.56
2023-04-15T17:15:25.531Z,17.60
2023-04-15T17:17:52.610Z,17.59
2023-04-15T17:20:20.027Z,17.66
2023-04-15T17:22:48.696Z,17.32
2023-04-15T17:25:16.040Z,17.36
2023-04-15T17:27:42.973Z,17.39
2023-04-15T17:30:10.257Z,17.12
2023-04-15T17:32:39.966Z,17.17
2023-04-15T17:35:07.802Z,16.99
2023-04-15T17:37:34.993Z,17.12
2023-04-15T17:40:02.539Z,17.17
2023-04-15T17:42:29.402Z,17.07
2023-04-15T17:44:56.424Z,17.05
2023-04-15T17:47:23.249Z,17.17
2023-04-15T17:49:50.158Z,17.00
2023-04-15T17:52:16.982Z,16.80
2023-04-15T17:54:43.797Z,16.93
2023-04-15T17:57:13.392Z,16.87
2023-04-15T17:59:45.137Z,17.03
2023-04-15T18:02:12.194Z,16.90
2023-04-15T18:04:39.990Z,16.86
2023-04-15T18:07:07.093Z,16.67
2023-04-15T18:09:34.052Z,16.57
2023-04-15T18:12:02.118Z,16.50
2023-04-15T18:14:34.577Z,16.53
2023-04-15T18:17:03.236Z,16.37
2023-04-15T18:19:30.762Z,16.43
2023-04-15T18:22:00.239Z,16.37
2023-04-15T18:24:28.098Z,16.35
2023-04-15T18:26:54.973Z,16.37
2023-04-15T18:29:22.008Z,16.32
2023-04-15T18:31:48.948Z,16.25
2023-04-15T18:34:15.736Z,15.99
2023-04-15T18:36:42.627Z,15.88
2023-04-15T18:39:09.736Z,15.98
2023-04-15T18:41:36.758Z,15.73
2023-04-15T18:44:03.708Z,15.60
2023-04-15T18:46:30.553Z,15.70
2023-04-15T18:48:57.422Z,15.79
2023-04-15T18:51:27.480Z,15.64
2023-04-15T18:53:54.348Z,15.72
2023-04-15T18:56:21.410Z,15.80
2023-04-15T18:59:08.337Z,15.58
2023-04-15T19:01:35.553Z,15.49
2023-04-15T19:04:02.513Z,15.46
2023-04-15T19:06:29.516Z,15.47
2023-04-15T19:08:58.748Z,15.42
2023-04-15T19:11:26.085Z,15.30
2023-04-15T19:13:53.179Z,15.21
2023-04-15T19:16:20.626Z,15.59
2023-04-15T19:18:47.455Z,15.54
2023-04-15T19:21:14.903Z,15.07
2023-04-15T19:23:43.225Z,14.99
2023-04-15T19:26:11.266Z,14.98
2023-04-15T19:28:38.143Z,15.02
2023-04-15T19:31:05.216Z,15.02
2023-04-15T19:33:32.282Z,14.92
2023-04-15T19:36:04.356Z,15.04
2023-04-15T19:38:36.074Z,14.96
2023-04-15T19:41:03.105Z,14.94
2023-04-15T19:43:33.025Z,14.80
2023-04-15T19:46:00.012Z,14.95
2023-04-15T19:48:27.131Z,14.78
2023-04-15T19:50:54.077Z,14.83
2023-04-15T19:53:20.933Z,14.68
2023-04-15T19:55:48.536Z,14.78
2023-04-15T19:58:15.656Z,14.78
2023-04-15T20:00:42.718Z,14.85
2023-04-15T20:03:09.751Z,14.88
2023-04-15T20:05:36.729Z,14.93
2023-04-15T20:08:03.752Z,14.90
2023-04-15T20:10:31.941Z,14.72
2023-04-15T20:12:59.160Z,14.77
2023-04-15T20:15:26.272Z,14.75
2023-04-15T20:17:53.427Z,14.75
2023-04-15T20:20:20.738Z,14.59
2023-04-15T20:22:47.912Z,14.66
2023-04-15T20:25:15.108Z,14.80
2023-04-15T20:27:42.095Z,14.82
2023-04-15T20:30:09.397Z,14.84
2023-04-15T20:32:36.747Z,14.81
2023-04-15T20:35:05.635Z,14.74
2023-04-15T20:37:33.773Z,14.60
2023-04-15T20:40:01.733Z,14.71
2023-04-15T20:42:33.317Z,14.56
2023-04-15T20:45:00.550Z,14.36
2023-04-15T20:47:27.511Z,14.25
2023-04-15T20:49:54.515Z,14.26
2023-04-15T20:52:21.936Z,14.40
2023-04-15T20:54:48.812Z,14.20
2023-04-15T20:57:17.029Z,14.41
2023-04-15T20:59:43.946Z,14.52
2023-04-15T21:02:10.984Z,14.27
2023-04-15T21:04:40.753Z,14.23
2023-04-15T21:07:07.708Z,14.34
2023-04-15T21:09:52.761Z,14.35
2023-04-15T21:12:22.561Z,14.24
2023-04-15T21:14:50.227Z,14.26
2023-04-15T21:17:17.136Z,14.24
2023-04-15T21:19:44.033Z,14.28
2023-04-15T21:22:10.926Z,14.37
2023-04-15T21:24:37.759Z,14.35
2023-04-15T21:27:04.570Z,14.16
2023-04-15T21:29:31.457Z,14.10
2023-04-15T21:31:58.379Z,14.26
2023-04-15T21:34:25.254Z,14.10
2023-04-15T21:36:54.316Z,14.24
2023-04-15T21:39:21.592Z,13.96
2023-04-15T21:41:48.459Z,13.86
2023-04-15T21:44:15.521Z,14.09
2023-04-15T21:46:46.056Z,14.20
2023-04-15T21:49:13.677Z,13.90
2023-04-15T21:51:40.693Z,14.10
2023-04-15T21:54:07.679Z,14.06
2023-04-15T21:56:34.810Z,13.85
2023-04-15T21:59:01.616Z,13.99
2023-04-15T22:01:28.579Z,14.04
2023-04-15T22:03:55.738Z,14.08
2023-04-15T22:06:23.033Z,14.10
2023-04-15T22:08:56.882Z,14.05
2023-04-15T22:11:30.510Z,14.03
2023-04-15T22:13:58.411Z,13.99
2023-04-15T22:16:26.549Z,14.01
2023-04-15T22:18:54.313Z,14.00
2023-04-15T22:21:21.250Z,13.99
2023-04-15T22:23:49.392Z,13.93
2023-04-15T22:26:18.611Z,13.69
2023-04-15T22:28:45.660Z,13.76
2023-04-15T22:31:13.786Z,13.84
2023-04-15T22:33:40.709Z,13.79
2023-04-15T22:36:07.702Z,13.73
2023-04-15T22:38:34.580Z,13.75
2023-04-15T22:41:01.557Z,13.86
2023-04-15T22:43:28.510Z,14.00
2023-04-15T22:45:55.597Z,13.89
2023-04-15T22:48:23.076Z,13.91
2023-04-15T22:50:50.362Z,13.85
2023-04-15T22:53:18.012Z,13.83
2023-04-15T22:55:46.805Z,13.82
2023-04-15T22:58:14.488Z,13.85
2023-04-15T23:00:41.501Z,13.91
2023-04-15T23:03:08.549Z,13.88
2023-04-15T23:05:35.729Z,13.77
2023-04-15T23:08:03.236Z,13.71
2023-04-15T23:10:30.055Z,13.76
2023-04-15T23:12:56.866Z,13.72
2023-04-15T23:15:24.135Z,13.66
2023-04-15T23:17:51.108Z,13.54
2023-04-15T23:20:18.077Z,13.52
2023-04-15T23:22:45.522Z,13.53
2023-04-15T23:25:12.427Z,13.53
2023-04-15T23:27:39.278Z,13.46
2023-04-15T23:30:07.060Z,13.34
2023-04-15T23:32:33.965Z,13.18
2023-04-15T23:35:00.847Z,13.24
2023-04-15T23:37:30.379Z,13.31
2023-04-15T23:39:57.315Z,13.38
2023-04-15T23:42:24.345Z,13.29
2023-04-15T23:44:51.341Z,13.27
2023-04-15T23:47:18.238Z,13.18
2023-04-15T23:49:45.163Z,13.08
2023-04-15T23:52:12.108Z,13.00
2023-04-15T23:54:38.963Z,13.08
2023-04-15T23:57:05.815Z,13.09
2023-04-15T23:59:32.644Z,13.06
